createdAt,value
2023-08-14T00:05:18.331Z,90
2023-08-14T00:15:18.522Z,90
2023-08-14T00:25:18.735Z,90
2023-08-14T00:35:18.940Z,90
2023-08-14T00:55:19.310Z,91
2023-08-14T01:15:19.702Z,91
2023-08-14T01:25:19.911Z,91
2023-08-14T01:35:20.118Z,91
2023-08-14T01:45:20.294Z,91
2023-08-14T01:55:20.497Z,91
2023-08-14T02:05:20.691Z,91
2023-08-14T02:15:20.904Z,91
2023-08-14T02:25:21.268Z,91
2023-08-14T02:35:21.507Z,91
2023-08-14T02:45:21.493Z,91
2023-08-14T02:55:21.689Z,91
2023-08-14T03:05:21.886Z,92
2023-08-14T03:15:22.106Z,91
2023-08-14T03:25:22.283Z,92
2023-08-14T03:35:22.506Z,92
2023-08-14T03:45:22.709Z,92
2023-08-14T03:55:22.890Z,92
2023-08-14T04:05:23.108Z,92
2023-08-14T04:15:23.294Z,92
2023-08-14T04:25:23.528Z,92
2023-08-14T04:35:25.164Z,92
2023-08-14T04:45:23.873Z,92
2023-08-14T04:55:24.079Z,92
2023-08-14T05:15:24.523Z,93
2023-08-14T05:25:24.670Z,93
2023-08-14T05:35:24.901Z,93
2023-08-14T05:45:25.093Z,93
2023-08-14T05:55:25.299Z,92
2023-08-14T06:05:25.500Z,91
2023-08-14T06:15:25.655Z,91
2023-08-14T06:35:26.041Z,89
2023-08-14T06:55:26.443Z,87
2023-08-14T07:05:26.686Z,86
2023-08-14T07:15:26.832Z,86
2023-08-14T07:35:27.214Z,86
2023-08-14T07:45:27.436Z,86
2023-08-14T07:55:27.640Z,86
2023-08-14T08:05:27.882Z,86
2023-08-14T08:15:27.996Z,86
2023-08-14T08:25:28.181Z,83
2023-08-14T08:35:28.382Z,80
2023-08-14T08:45:28.569Z,79
2023-08-14T08:55:29.927Z,76
2023-08-14T09:05:28.962Z,69
2023-08-14T09:15:33.139Z,71
2023-08-14T09:35:29.573Z,70
2023-08-14T09:45:29.789Z,67
2023-08-14T09:55:29.935Z,67
2023-08-14T10:05:30.125Z,66
2023-08-14T10:25:30.533Z,67
2023-08-14T10:35:30.704Z,64
2023-08-14T10:45:30.906Z,65
2023-08-14T10:55:31.095Z,62
2023-08-14T11:05:31.316Z,64
2023-08-14T11:15:31.528Z,62
2023-08-14T11:25:31.682Z,61
2023-08-14T11:35:31.892Z,59
2023-08-14T11:45:32.073Z,59
2023-08-14T11:55:32.276Z,61
2023-08-14T12:05:32.442Z,57
2023-08-14T12:15:32.662Z,56
2023-08-14T12:25:32.844Z,60
2023-08-14T12:35:33.036Z,58
2023-08-14T12:55:33.419Z,55
2023-08-14T13:15:33.811Z,55
2023-08-14T13:25:34.003Z,55
2023-08-14T13:35:34.187Z,57
2023-08-14T13:45:34.375Z,57
2023-08-14T13:55:34.602Z,59
2023-08-14T14:05:34.779Z,57
2023-08-14T14:15:34.975Z,58
2023-08-14T14:25:35.160Z,58
2023-08-14T14:35:35.360Z,58
2023-08-14T14:45:35.869Z,58
2023-08-14T14:55:35.756Z,58
2023-08-14T15:05:35.928Z,58
2023-08-14T15:15:36.166Z,60
2023-08-14T15:25:36.314Z,58
2023-08-14T15:55:36.892Z,59
2023-08-14T16:05:37.085Z,62
2023-08-14T16:15:37.283Z,63
2023-08-14T16:25:37.483Z,63
2023-08-14T16:45:37.860Z,64
2023-08-14T16:55:38.054Z,66
2023-08-14T17:05:38.301Z,67
2023-08-14T17:15:38.447Z,68
2023-08-14T17:25:38.663Z,69
2023-08-14T17:35:38.837Z,70
2023-08-14T17:45:39.063Z,70
2023-08-14T17:55:39.223Z,71
2023-08-14T18:05:39.415Z,71
2023-08-14T18:15:39.614Z,71
2023-08-14T18:35:40.003Z,73
2023-08-14T18:45:40.234Z,74
2023-08-14T18:55:40.379Z,75
2023-08-14T19:15:40.801Z,77
2023-08-14T19:25:40.966Z,77
2023-08-14T19:35:41.148Z,79
2023-08-14T19:45:41.341Z,80
2023-08-14T19:55:41.549Z,80
2023-08-14T20:05:41.760Z,82
2023-08-14T20:15:41.959Z,82
2023-08-14T20:35:42.323Z,84
2023-08-14T20:55:42.710Z,85
2023-08-14T21:15:43.111Z,85
2023-08-14T21:25:47.588Z,85
2023-08-14T21:35:43.497Z,84
2023-08-14T21:55:43.892Z,82
2023-08-14T22:05:44.088Z,82
2023-08-14T22:15:46.632Z,82
2023-08-14T22:35:44.637Z,82
2023-08-14T22:55:45.042Z,82
2023-08-14T23:05:45.225Z,82
2023-08-14T23:15:45.448Z,82
2023-08-14T23:25:45.646Z,83
2023-08-14T23:45:46.017Z,84
